createdAt,value
2022-12-24T00:01:08.168Z,10.30
2022-12-24T00:03:37.524Z,10.30
2022-12-24T00:06:08.835Z,10.20
2022-12-24T00:08:37.353Z,10.20
2022-12-24T00:11:05.991Z,10.20
2022-12-24T00:13:37.937Z,10.20
2022-12-24T00:16:07.721Z,10.10
2022-12-24T00:18:43.339Z,10.10
2022-12-24T00:21:13.988Z,10.10
2022-12-24T00:23:42.860Z,10.10
2022-12-24T00:26:13.267Z,10.10
2022-12-24T00:28:43.277Z,10.10
2022-12-24T00:31:21.066Z,10.10
2022-12-24T00:33:49.664Z,10.10
2022-12-24T00:36:20.279Z,10.10
2022-12-24T00:38:48.692Z,10.00
2022-12-24T00:41:29.152Z,10.00
2022-12-24T00:44:00.833Z,10.00
2022-12-24T00:46:33.124Z,10.00
2022-12-24T00:49:02.020Z,9.90
2022-12-24T00:51:30.204Z,9.90
2022-12-24T00:54:00.223Z,9.90
2022-12-24T00:56:28.332Z,9.90
2022-12-24T00:58:56.565Z,9.90
2022-12-24T01:01:27.176Z,9.90
2022-12-24T01:04:16.335Z,9.90
2022-12-24T01:06:46.107Z,9.90
2022-12-24T01:09:16.437Z,9.90
2022-12-24T01:11:46.284Z,9.90
2022-12-24T01:14:14.234Z,9.90
2022-12-24T01:16:44.708Z,9.90
2022-12-24T01:19:12.680Z,9.90
2022-12-24T01:21:41.426Z,9.80
2022-12-24T01:24:15.197Z,9.90
2022-12-24T01:26:45.843Z,9.80
2022-12-24T01:29:15.760Z,9.80
2022-12-24T01:31:45.755Z,9.80
2022-12-24T01:34:13.714Z,9.80
2022-12-24T01:36:43.062Z,9.80
2022-12-24T01:39:11.153Z,9.80
2022-12-24T01:41:57.447Z,9.80
2022-12-24T01:44:33.409Z,9.80
2022-12-24T01:47:10.796Z,9.80
2022-12-24T01:49:42.486Z,9.80
2022-12-24T01:52:13.908Z,9.80
2022-12-24T01:54:45.331Z,9.80
2022-12-24T01:57:19.410Z,9.70
2022-12-24T01:59:52.637Z,9.70
2022-12-24T02:02:23.354Z,9.70
2022-12-24T02:04:57.790Z,9.80
2022-12-24T02:07:26.072Z,9.80
2022-12-24T02:09:57.754Z,9.80
2022-12-24T02:12:28.171Z,9.80
2022-12-24T02:14:56.661Z,9.80
2022-12-24T02:17:32.860Z,9.80
2022-12-24T02:20:29.603Z,9.80
2022-12-24T02:23:17.703Z,9.80
2022-12-24T02:26:17.850Z,9.90
2022-12-24T02:29:07.488Z,9.90
2022-12-24T02:31:47.056Z,10.00
2022-12-24T02:34:22.599Z,10.00
2022-12-24T02:36:58.987Z,10.00
2022-12-24T02:39:34.966Z,10.00
2022-12-24T02:42:08.646Z,10.00
2022-12-24T02:44:41.883Z,10.00
2022-12-24T02:47:14.754Z,10.10
2022-12-24T02:49:45.585Z,10.10
2022-12-24T02:52:33.414Z,10.10
2022-12-24T02:55:08.526Z,10.10
2022-12-24T02:57:48.657Z,10.10
2022-12-24T03:00:20.787Z,10.20
2022-12-24T03:03:15.717Z,10.20
2022-12-24T03:05:47.725Z,10.20
2022-12-24T03:08:23.731Z,10.20
2022-12-24T03:10:57.661Z,10.20
2022-12-24T03:13:26.607Z,10.20
2022-12-24T03:15:54.693Z,10.20
2022-12-24T03:18:31.700Z,10.20
2022-12-24T03:21:06.778Z,10.20
2022-12-24T03:23:45.069Z,10.20
2022-12-24T03:26:15.694Z,10.30
2022-12-24T03:28:45.877Z,10.30
2022-12-24T03:31:16.527Z,10.30
2022-12-24T03:33:46.968Z,10.30
2022-12-24T03:36:17.311Z,10.40
2022-12-24T03:38:45.346Z,10.40
2022-12-24T03:41:13.406Z,10.40
2022-12-24T03:43:41.529Z,10.40
2022-12-24T03:46:10.698Z,10.40
2022-12-24T03:48:50.111Z,10.40
2022-12-24T03:51:23.079Z,10.40
2022-12-24T03:53:52.971Z,10.40
2022-12-24T03:56:21.605Z,10.40
2022-12-24T03:59:09.881Z,10.40
2022-12-24T04:01:38.091Z,10.40
2022-12-24T04:04:07.748Z,10.40
2022-12-24T04:06:39.017Z,10.40
2022-12-24T04:09:08.757Z,10.50
2022-12-24T04:11:36.785Z,10.50
2022-12-24T04:14:04.872Z,10.50
2022-12-24T04:16:33.084Z,10.50
2022-12-24T04:19:05.727Z,10.50
2022-12-24T04:21:34.445Z,10.50
2022-12-24T04:24:09.047Z,10.50
2022-12-24T04:26:37.636Z,10.50
2022-12-24T04:29:06.338Z,10.50
2022-12-24T04:31:34.765Z,10.50
2022-12-24T04:34:02.744Z,10.50
2022-12-24T04:36:31.609Z,10.50
2022-12-24T04:38:59.528Z,10.50
2022-12-24T04:41:29.280Z,10.50
2022-12-24T04:43:57.441Z,10.50
2022-12-24T04:46:30.558Z,10.50
2022-12-24T04:48:59.588Z,10.50
2022-12-24T04:51:29.592Z,10.50
2022-12-24T04:53:57.795Z,10.50
2022-12-24T04:56:34.221Z,10.50
2022-12-24T04:59:02.992Z,10.50
2022-12-24T05:01:33.946Z,10.50
2022-12-24T05:04:04.058Z,10.50
2022-12-24T05:06:35.533Z,10.50
2022-12-24T05:09:03.744Z,10.50
2022-12-24T05:11:34.194Z,10.50
2022-12-24T05:14:22.752Z,10.50
2022-12-24T05:16:50.838Z,10.50
2022-12-24T05:19:19.249Z,10.50
2022-12-24T05:22:11.710Z,10.50
2022-12-24T05:24:57.476Z,10.50
2022-12-24T05:27:27.028Z,10.50
2022-12-24T05:29:55.016Z,10.50
2022-12-24T05:32:23.106Z,10.60
2022-12-24T05:34:51.079Z,10.50
2022-12-24T05:37:22.256Z,10.50
2022-12-24T05:39:50.641Z,10.50
2022-12-24T05:42:18.816Z,10.50
2022-12-24T05:44:51.220Z,10.50
2022-12-24T05:47:21.427Z,10.50
2022-12-24T05:49:49.505Z,10.50
2022-12-24T05:52:17.463Z,10.50
2022-12-24T05:54:45.432Z,10.50
2022-12-24T05:57:13.537Z,10.40
2022-12-24T05:59:41.542Z,10.40
2022-12-24T06:02:12.158Z,10.40
2022-12-24T06:04:40.304Z,10.40
2022-12-24T06:07:08.232Z,10.40
2022-12-24T06:09:36.247Z,10.30
2022-12-24T06:12:04.281Z,10.30
2022-12-24T06:14:32.368Z,10.30
2022-12-24T06:17:00.346Z,10.30
2022-12-24T06:19:29.612Z,10.30
2022-12-24T06:21:57.510Z,10.20
2022-12-24T06:24:25.636Z,10.20
2022-12-24T06:26:53.583Z,10.20
2022-12-24T06:29:21.631Z,10.10
2022-12-24T06:31:49.636Z,10.10
2022-12-24T06:34:17.874Z,10.10
2022-12-24T06:36:47.251Z,10.10
2022-12-24T06:39:15.179Z,10.10
2022-12-24T06:41:43.123Z,10.10
2022-12-24T06:44:11.084Z,10.10
2022-12-24T06:46:39.160Z,10.00
2022-12-24T06:49:07.194Z,10.00
2022-12-24T06:51:35.185Z,10.00
2022-12-24T06:54:04.684Z,9.90
2022-12-24T06:56:32.668Z,10.00
2022-12-24T06:59:05.293Z,9.90
2022-12-24T07:01:33.828Z,9.90
2022-12-24T07:04:01.997Z,9.90
2022-12-24T07:06:31.238Z,9.90
2022-12-24T07:08:59.748Z,9.80
2022-12-24T07:11:29.014Z,9.80
2022-12-24T07:13:57.015Z,9.80
2022-12-24T07:16:25.183Z,9.80
2022-12-24T07:18:53.244Z,9.70
2022-12-24T07:21:21.172Z,9.70
2022-12-24T07:23:49.303Z,9.80
2022-12-24T07:26:17.349Z,9.70
2022-12-24T07:28:46.717Z,9.80
2022-12-24T07:31:14.714Z,9.80
2022-12-24T07:33:42.702Z,9.80
2022-12-24T07:36:18.833Z,9.80
2022-12-24T07:38:47.267Z,9.80
2022-12-24T07:41:15.924Z,9.80
2022-12-24T07:43:44.387Z,9.70
2022-12-24T07:46:13.844Z,9.80
2022-12-24T07:48:41.855Z,9.70
2022-12-24T07:51:10.007Z,9.70
2022-12-24T07:53:38.129Z,9.70
2022-12-24T07:56:12.500Z,9.70
2022-12-24T07:58:41.437Z,9.70
2022-12-24T08:01:10.388Z,9.70
2022-12-24T08:03:40.072Z,9.80
2022-12-24T08:06:08.358Z,9.70
2022-12-24T08:08:37.586Z,9.70
2022-12-24T08:11:07.978Z,9.70
2022-12-24T08:13:36.513Z,9.70
2022-12-24T08:16:05.215Z,9.70
2022-12-24T08:18:33.367Z,9.80
2022-12-24T08:21:02.858Z,9.80
2022-12-24T08:23:30.870Z,9.80
2022-12-24T08:25:58.861Z,9.80
2022-12-24T08:28:26.846Z,9.80
2022-12-24T08:30:54.915Z,9.80
2022-12-24T08:33:23.553Z,9.90
2022-12-24T08:35:53.077Z,9.90
2022-12-24T08:38:23.761Z,9.90
2022-12-24T08:40:53.714Z,9.90
2022-12-24T08:43:22.481Z,9.90
2022-12-24T08:45:50.556Z,9.90
2022-12-24T08:48:18.597Z,9.90
2022-12-24T08:50:46.709Z,9.90
2022-12-24T08:53:15.002Z,10.00
2022-12-24T08:55:45.849Z,10.00
2022-12-24T08:58:15.796Z,10.10
2022-12-24T09:00:43.736Z,10.10
2022-12-24T09:03:15.787Z,10.10
2022-12-24T09:05:44.282Z,10.20
2022-12-24T09:08:12.246Z,10.10
2022-12-24T09:10:40.223Z,10.20
2022-12-24T09:13:09.555Z,10.20
2022-12-24T09:15:37.854Z,10.20
2022-12-24T09:18:06.519Z,10.30
2022-12-24T09:20:34.707Z,10.30
2022-12-24T09:23:03.017Z,10.30
2022-12-24T09:25:31.144Z,10.30
2022-12-24T09:27:59.237Z,10.40
2022-12-24T09:30:28.574Z,10.40
2022-12-24T09:32:56.525Z,10.40
2022-12-24T09:35:24.445Z,10.40
2022-12-24T09:38:03.085Z,10.40
2022-12-24T09:40:39.047Z,10.40
2022-12-24T09:43:15.381Z,10.50
2022-12-24T09:45:50.885Z,10.50
2022-12-24T09:48:31.077Z,10.50
2022-12-24T09:51:05.219Z,10.50
2022-12-24T09:53:39.780Z,10.50
2022-12-24T09:56:13.624Z,10.50
2022-12-24T09:58:46.015Z,10.50
2022-12-24T10:01:21.110Z,10.60
2022-12-24T10:03:51.602Z,10.60
2022-12-24T10:06:28.723Z,10.60
2022-12-24T10:09:09.913Z,10.70
2022-12-24T10:11:48.691Z,10.70
2022-12-24T10:14:30.107Z,10.70
2022-12-24T10:17:15.009Z,10.60
2022-12-24T10:19:51.757Z,10.70
2022-12-24T10:22:25.654Z,10.60
2022-12-24T10:25:01.433Z,10.70
2022-12-24T10:27:36.708Z,10.60
2022-12-24T10:30:17.283Z,10.70
2022-12-24T10:32:49.847Z,10.60
2022-12-24T10:35:23.912Z,10.60
2022-12-24T10:37:53.666Z,10.60
2022-12-24T10:40:32.686Z,10.60
2022-12-24T10:43:05.941Z,10.60
2022-12-24T10:45:40.843Z,10.60
2022-12-24T10:48:17.724Z,10.60
2022-12-24T10:50:55.665Z,10.60
2022-12-24T10:53:29.341Z,10.60
2022-12-24T10:56:06.203Z,10.50
2022-12-24T10:58:34.857Z,10.60
2022-12-24T11:01:03.233Z,10.60
2022-12-24T11:03:34.828Z,10.60
2022-12-24T11:06:09.257Z,10.60
2022-12-24T11:08:38.678Z,10.60
2022-12-24T11:11:09.452Z,10.60
2022-12-24T11:13:41.189Z,10.60
2022-12-24T11:16:22.371Z,10.60
2022-12-24T11:18:53.160Z,10.60
2022-12-24T11:21:26.689Z,10.60
2022-12-24T11:23:58.048Z,10.60
2022-12-24T11:26:28.860Z,10.60
2022-12-24T11:29:20.461Z,10.50
2022-12-24T11:31:49.831Z,10.60
2022-12-24T11:34:28.743Z,10.60
2022-12-24T11:37:14.625Z,10.60
2022-12-24T11:39:49.832Z,10.60
2022-12-24T11:42:27.937Z,10.70
2022-12-24T11:44:57.607Z,10.60
2022-12-24T11:47:36.753Z,10.70
2022-12-24T11:50:25.687Z,10.70
2022-12-24T11:53:00.543Z,10.70
2022-12-24T11:55:37.719Z,10.80
2022-12-24T11:58:17.990Z,10.80
2022-12-24T12:00:48.977Z,10.80
2022-12-24T12:03:28.833Z,10.80
2022-12-24T12:06:03.248Z,10.80
2022-12-24T12:08:32.601Z,10.80
2022-12-24T12:11:01.093Z,10.80
2022-12-24T12:13:33.769Z,10.80
2022-12-24T12:17:03.999Z,10.80
2022-12-24T12:19:41.149Z,10.90
2022-12-24T12:22:24.971Z,10.80
2022-12-24T12:24:55.940Z,10.80
2022-12-24T12:27:32.205Z,10.80
2022-12-24T12:30:03.646Z,10.90
2022-12-24T12:32:43.243Z,10.90
2022-12-24T12:35:20.480Z,10.90
2022-12-24T12:37:57.338Z,10.90
2022-12-24T12:40:36.750Z,10.90
2022-12-24T12:43:14.663Z,10.90
2022-12-24T12:45:49.927Z,10.90
2022-12-24T12:48:44.161Z,10.90
2022-12-24T12:51:20.595Z,11.00
2022-12-24T12:54:24.203Z,10.90
2022-12-24T12:56:56.042Z,10.90
2022-12-24T12:59:32.779Z,10.90
2022-12-24T13:02:15.154Z,11.00
2022-12-24T13:05:24.181Z,11.00
2022-12-24T13:08:16.680Z,11.00
2022-12-24T13:11:00.226Z,11.00
2022-12-24T13:14:05.073Z,11.00
2022-12-24T13:17:10.441Z,11.00
2022-12-24T13:19:51.470Z,11.00
2022-12-24T13:22:22.604Z,11.00
2022-12-24T13:24:52.707Z,11.00
2022-12-24T13:27:26.266Z,11.00
2022-12-24T13:29:57.196Z,11.00
2022-12-24T13:32:52.684Z,11.10
2022-12-24T13:35:38.949Z,11.10
2022-12-24T13:38:45.736Z,11.10
2022-12-24T13:41:59.445Z,11.10
2022-12-24T13:44:36.554Z,11.10
2022-12-24T13:47:18.617Z,11.20
2022-12-24T13:49:51.246Z,11.10
2022-12-24T13:52:30.112Z,11.20
2022-12-24T13:55:16.996Z,11.20
2022-12-24T13:57:49.147Z,11.20
2022-12-24T14:00:37.068Z,11.20
2022-12-24T14:03:08.653Z,11.20
2022-12-24T14:05:41.340Z,11.20
2022-12-24T14:08:13.624Z,11.20
2022-12-24T14:10:45.069Z,11.20
2022-12-24T14:13:46.913Z,11.20
2022-12-24T14:16:19.357Z,11.20
2022-12-24T14:18:51.184Z,11.20
2022-12-24T14:21:23.472Z,11.20
2022-12-24T14:23:55.718Z,11.20
2022-12-24T14:26:26.157Z,11.20
2022-12-24T14:28:58.064Z,11.20
2022-12-24T14:31:27.890Z,11.20
2022-12-24T14:34:07.885Z,11.20
2022-12-24T14:36:37.362Z,11.20
2022-12-24T14:39:09.363Z,11.20
2022-12-24T14:41:51.649Z,11.20
2022-12-24T14:44:35.474Z,11.20
2022-12-24T14:47:16.922Z,11.20
2022-12-24T14:50:02.337Z,11.10
2022-12-24T14:53:05.090Z,11.10
2022-12-24T14:55:40.645Z,11.10
2022-12-24T14:58:26.185Z,11.10
2022-12-24T15:00:57.218Z,11.10
2022-12-24T15:03:29.880Z,11.00
2022-12-24T15:06:00.506Z,10.90
2022-12-24T15:08:32.431Z,10.90
2022-12-24T15:11:06.041Z,10.90
2022-12-24T15:13:37.514Z,10.90
2022-12-24T15:16:09.000Z,10.90
2022-12-24T15:18:44.556Z,10.90
2022-12-24T15:21:19.076Z,10.80
2022-12-24T15:23:49.673Z,10.80
2022-12-24T15:26:23.199Z,10.80
2022-12-24T15:28:56.579Z,10.80
2022-12-24T15:32:46.302Z,10.70
2022-12-24T15:35:53.126Z,10.70
2022-12-24T15:42:46.447Z,10.60
2022-12-24T15:45:23.195Z,10.60
2022-12-24T15:47:58.267Z,10.60
2022-12-24T15:50:31.019Z,10.60
2022-12-24T15:53:19.471Z,10.60
2022-12-24T15:56:05.168Z,10.50
2022-12-24T15:58:36.851Z,10.50
2022-12-24T16:01:20.073Z,10.60
2022-12-24T16:04:00.815Z,10.50
2022-12-24T16:06:29.805Z,10.40
2022-12-24T16:08:59.361Z,10.40
2022-12-24T16:11:34.740Z,10.40
2022-12-24T16:14:12.422Z,10.40
2022-12-24T16:16:42.609Z,10.40
2022-12-24T16:19:20.515Z,10.40
2022-12-24T16:21:53.279Z,10.30
2022-12-24T16:24:26.164Z,10.30
2022-12-24T16:26:55.331Z,10.30
2022-12-24T16:29:23.874Z,10.30
2022-12-24T16:31:54.274Z,10.30
2022-12-24T16:34:25.751Z,10.30
2022-12-24T16:36:53.973Z,10.30
2022-12-24T16:39:25.155Z,10.30
2022-12-24T16:42:11.125Z,10.30
2022-12-24T16:44:40.064Z,10.30
2022-12-24T16:47:12.008Z,10.30
2022-12-24T16:49:40.941Z,10.30
2022-12-24T16:52:18.087Z,10.30
2022-12-24T16:54:47.649Z,10.30
2022-12-24T16:57:15.876Z,10.30
2022-12-24T16:59:44.178Z,10.30
2022-12-24T17:02:15.299Z,10.30
2022-12-24T17:04:44.308Z,10.30
2022-12-24T17:07:13.577Z,10.30
2022-12-24T17:09:42.032Z,10.30
2022-12-24T17:12:11.757Z,10.30
2022-12-24T17:14:40.385Z,10.30
2022-12-24T17:17:08.455Z,10.30
2022-12-24T17:19:37.406Z,10.30
2022-12-24T17:22:05.410Z,10.40
2022-12-24T17:24:33.441Z,10.40
2022-12-24T17:27:01.914Z,10.30
2022-12-24T17:29:31.398Z,10.40
2022-12-24T17:31:59.411Z,10.30
2022-12-24T17:34:27.571Z,10.40
2022-12-24T17:36:55.538Z,10.40
2022-12-24T17:39:27.876Z,10.40
2022-12-24T17:41:57.284Z,10.40
2022-12-24T17:44:25.643Z,10.40
2022-12-24T17:46:55.053Z,10.40
2022-12-24T17:49:23.226Z,10.40
2022-12-24T17:51:51.483Z,10.40
2022-12-24T17:54:19.517Z,10.30
2022-12-24T17:56:47.560Z,10.30
2022-12-24T17:59:15.849Z,10.30
2022-12-24T18:01:44.075Z,10.30
2022-12-24T18:04:13.728Z,10.20
2022-12-24T18:06:48.822Z,10.20
2022-12-24T18:09:17.450Z,10.30
2022-12-24T18:11:45.938Z,10.20
2022-12-24T18:14:15.471Z,10.20
2022-12-24T18:16:46.256Z,10.20
2022-12-24T18:19:15.751Z,10.20
2022-12-24T18:21:43.732Z,10.10
2022-12-24T18:24:13.140Z,10.10
2022-12-24T18:26:41.388Z,10.10
2022-12-24T18:29:10.635Z,10.10
2022-12-24T18:31:39.208Z,10.10
2022-12-24T18:34:10.501Z,10.10
2022-12-24T18:36:39.777Z,10.10
2022-12-24T18:39:07.992Z,10.00
2022-12-24T18:41:36.417Z,10.10
2022-12-24T18:44:04.925Z,10.10
2022-12-24T18:46:34.312Z,10.10
2022-12-24T18:49:03.111Z,10.10
2022-12-24T18:51:34.293Z,10.10
2022-12-24T18:54:04.036Z,10.10
2022-12-24T18:56:32.491Z,10.10
2022-12-24T18:59:04.468Z,10.10
2022-12-24T19:01:35.021Z,10.10
2022-12-24T19:04:03.792Z,10.10
2022-12-24T19:06:32.177Z,10.10
2022-12-24T19:09:01.510Z,10.10
2022-12-24T19:11:33.573Z,10.10
2022-12-24T19:14:02.811Z,10.20
2022-12-24T19:16:33.701Z,10.20
2022-12-24T19:19:02.333Z,10.20
2022-12-24T19:21:30.323Z,10.20
2022-12-24T19:24:01.482Z,10.20
2022-12-24T19:26:31.030Z,10.20
2022-12-24T19:28:59.279Z,10.30
2022-12-24T19:31:28.284Z,10.30
2022-12-24T19:34:26.271Z,10.20
2022-12-24T19:36:55.902Z,10.30
2022-12-24T19:39:31.999Z,10.20
2022-12-24T19:42:02.367Z,10.30
2022-12-24T19:44:31.210Z,10.30
2022-12-24T19:46:59.482Z,10.30
2022-12-24T19:49:28.047Z,10.30
2022-12-24T19:51:57.643Z,10.20
2022-12-24T19:54:27.465Z,10.30
2022-12-24T19:56:55.785Z,10.20
2022-12-24T19:59:28.213Z,10.20
2022-12-24T20:01:56.956Z,10.30
2022-12-24T20:04:27.484Z,10.20
2022-12-24T20:07:00.160Z,10.10
2022-12-24T20:09:31.937Z,10.20
2022-12-24T20:12:00.197Z,10.20
2022-12-24T20:14:29.626Z,10.20
2022-12-24T20:16:58.171Z,10.20
2022-12-24T20:19:26.940Z,10.20
2022-12-24T20:21:55.384Z,10.20
2022-12-24T20:24:24.078Z,10.20
2022-12-24T20:26:55.085Z,10.20
2022-12-24T20:29:23.160Z,10.20
2022-12-24T20:31:53.002Z,10.20
2022-12-24T20:34:21.808Z,10.20
2022-12-24T20:36:49.859Z,10.10
2022-12-24T20:39:18.350Z,10.20
2022-12-24T20:41:46.510Z,10.20
2022-12-24T20:44:14.641Z,10.20
2022-12-24T20:46:43.421Z,10.10
2022-12-24T20:49:14.276Z,10.10
2022-12-24T20:51:44.249Z,10.10
2022-12-24T20:54:12.832Z,10.10
2022-12-24T20:56:42.135Z,10.10
2022-12-24T20:59:10.258Z,10.10
2022-12-24T21:01:39.294Z,10.10
2022-12-24T21:04:10.960Z,10.10
2022-12-24T21:06:40.803Z,10.10
2022-12-24T21:09:11.414Z,10.10
2022-12-24T21:12:03.117Z,10.10
2022-12-24T21:14:31.352Z,10.00
2022-12-24T21:16:59.722Z,10.10
2022-12-24T21:19:28.043Z,10.10
2022-12-24T21:21:57.732Z,10.00
2022-12-24T21:24:28.207Z,10.00
2022-12-24T21:26:57.723Z,10.00
2022-12-24T21:29:25.852Z,10.00
2022-12-24T21:31:53.962Z,10.00
2022-12-24T21:34:22.133Z,10.00
2022-12-24T21:36:50.365Z,10.00
2022-12-24T21:39:21.142Z,10.00
2022-12-24T21:41:52.163Z,10.00
2022-12-24T21:44:21.581Z,10.10
2022-12-24T21:46:52.323Z,10.10
2022-12-24T21:49:38.266Z,10.00
2022-12-24T21:52:06.852Z,10.00
2022-12-24T21:54:39.143Z,10.00
2022-12-24T21:57:26.404Z,10.00
2022-12-24T21:59:56.513Z,10.00
2022-12-24T22:02:27.758Z,10.00
2022-12-24T22:04:56.270Z,10.00
2022-12-24T22:07:44.109Z,10.00
2022-12-24T22:10:33.315Z,10.00
2022-12-24T22:13:06.374Z,10.00
2022-12-24T22:15:34.658Z,10.00
2022-12-24T22:18:02.661Z,10.00
2022-12-24T22:20:31.852Z,9.90
2022-12-24T22:23:02.501Z,10.00
2022-12-24T22:25:32.166Z,9.90
2022-12-24T22:28:03.292Z,9.90
2022-12-24T22:30:33.696Z,10.00
2022-12-24T22:33:01.742Z,10.00
2022-12-24T22:35:49.919Z,10.00
2022-12-24T22:38:17.981Z,9.90
2022-12-24T22:40:47.674Z,10.00
2022-12-24T22:43:18.268Z,10.00
2022-12-24T22:45:46.357Z,10.00
2022-12-24T22:48:15.893Z,10.10
2022-12-24T22:50:44.040Z,10.10
2022-12-24T22:53:13.551Z,10.10
2022-12-24T22:55:41.477Z,10.10
2022-12-24T22:58:11.040Z,10.10
2022-12-24T23:00:42.060Z,10.10
2022-12-24T23:03:12.576Z,10.10
2022-12-24T23:05:41.111Z,10.10
2022-12-24T23:08:09.654Z,10.20
2022-12-24T23:10:38.721Z,10.20
2022-12-24T23:13:34.615Z,10.20
2022-12-24T23:16:05.347Z,10.30
2022-12-24T23:18:33.734Z,10.30
2022-12-24T23:21:07.525Z,10.30
2022-12-24T23:23:37.430Z,10.30
2022-12-24T23:26:07.567Z,10.30
2022-12-24T23:28:35.889Z,10.30
2022-12-24T23:31:07.021Z,10.40
2022-12-24T23:33:36.279Z,10.30
2022-12-24T23:36:05.658Z,10.30
2022-12-24T23:38:34.071Z,10.40
2022-12-24T23:41:04.292Z,10.40
2022-12-24T23:43:32.617Z,10.40
2022-12-24T23:46:06.208Z,10.40
2022-12-24T23:48:35.604Z,10.40
2022-12-24T23:51:08.673Z,10.40
2022-12-24T23:53:38.473Z,10.40
2022-12-24T23:56:07.228Z,10.40
2022-12-24T23:58:35.582Z,10.40
